CheckWX is a tool to help pilots better visualize weather data.  It is not intended as a substitute for an official pre-flight weather briefing.

22:26:26 UTC

KIPT TAF
Williamsport Regional Airport
Williamsport, Pennsylvania, USA
KIPT 252029Z 2520/2618 36008KT P6SM BKN100 FM252200 33006KT P6SM BKN200 OVC250

Mar-25@
20:00 UTC

Mar-25 @ 20:00 UTC

Mar-25@
22:00 UTC

Mar-25 @ 22:00 UTC

KIPT 252029Z 2520/2618 36008KT P6SM BKN100

Expired

Wind
  • 360° at 8 KTS
Cloud Levels
  • Broken at 10,000' AGL

Mar-25@
22:00 UTC

Mar-25 @ 22:00 UTC

Mar-26@
18:00 UTC

Mar-26 @ 18:00 UTC

FM252200 33006KT P6SM BKN200 OVC250

From

From Standard forecast or significant change

Wind
  • 330° at 6 KTS
Cloud Levels
  • Broken at 20,000' AGL
  • Overcast at 25,000' AGL